Time;durP1;ratioP1;P1;durP2;ratioP2;P2;SDS_P1;SDS_P2;PMS_P1;PMS_P2;Temp;Humidity;BMP_temperature;BMP_pressure;BME280_temperature;BME280_humidity;BME280_pressure;Samples;Min_cycle;Max_cycle;Signal;HPM_P1;HPM_P2
2021/06/23 00:02:13;;;;;;;3.33;2.30;;;;;;;;;;4997843;28;20476;-60
2021/06/23 00:04:39;;;;;;;2.40;2.20;;;;;;;;;;5003722;28;20111;-60
2021/06/23 00:07:05;;;;;;;3.42;2.58;;;;;;;;;;5003079;28;20034;-60
2021/06/23 00:09:30;;;;;;;3.63;2.05;;;;;;;;;;5005239;28;20149;-60
2021/06/23 00:11:57;;;;;;;4.03;2.50;;;;;;;;;;5004924;28;20018;-60
2021/06/23 00:14:23;;;;;;;5.72;1.92;;;;;;;;;;4999068;28;20033;-60
2021/06/23 00:16:49;;;;;;;2.35;2.15;;;;;;;;;;5002041;28;20021;-60
2021/06/23 00:19:14;;;;;;;2.78;2.25;;;;;;;;;;5001553;28;20451;-62
2021/06/23 00:21:40;;;;;;;2.60;2.38;;;;;;;;;;4999115;28;20441;-60
2021/06/23 00:24:06;;;;;;;2.17;1.80;;;;;;;;;;5001947;28;20026;-60
2021/06/23 00:26:36;;;;;;;2.65;2.00;;;;;;;;;;5005859;28;20037;-60
2021/06/23 00:29:02;;;;;;;1.83;1.73;;;;;;;;;;5002100;28;21145;-60
2021/06/23 00:31:28;;;;;;;2.85;2.00;;;;;;;;;;4999140;28;20056;-62
2021/06/23 00:33:54;;;;;;;3.17;1.80;;;;;;;;;;5005231;28;20041;-60
2021/06/23 00:36:20;;;;;;;2.17;1.80;;;;;;;;;;4999982;28;20068;-60
2021/06/23 00:38:45;;;;;;;2.60;1.90;;;;;;;;;;4995925;28;20029;-60
2021/06/23 00:41:17;;;;;;;3.30;1.98;;;;;;;;;;4997451;28;20029;-60
2021/06/23 00:43:43;;;;;;;2.55;1.98;;;;;;;;;;5018088;28;20030;-60
2021/06/23 00:46:10;;;;;;;3.00;1.92;;;;;;;;;;5002444;28;20036;-59
2021/06/23 00:48:36;;;;;;;2.22;2.00;;;;;;;;;;5003555;28;20192;-60
2021/06/23 00:51:01;;;;;;;2.85;1.70;;;;;;;;;;5005055;28;20437;-60
2021/06/23 00:53:30;;;;;;;2.45;1.60;;;;;;;;;;5005641;28;20083;-59
2021/06/23 00:55:57;;;;;;;1.60;1.50;;;;;;;;;;5002164;28;20034;-59
2021/06/23 00:58:24;;;;;;;1.30;1.20;;;;;;;;;;5001116;28;20152;-59
2021/06/23 01:00:51;;;;;;;1.95;1.20;;;;;;;;;;5003627;28;20424;-60
2021/06/23 01:03:17;;;;;;;1.55;1.45;;;;;;;;;;5003775;28;20026;-60
2021/06/23 01:05:43;;;;;;;1.40;1.30;;;;;;;;;;5001470;28;20034;-60
2021/06/23 01:08:09;;;;;;;1.52;1.40;;;;;;;;;;4999303;28;20026;-60
2021/06/23 01:10:36;;;;;;;1.70;1.17;;;;;;;;;;4994598;28;20141;-59
2021/06/23 01:13:25;;;;;;;1.42;1.30;;;;;;;;;;4999954;28;20033;-59
2021/06/23 01:15:53;;;;;;;1.38;1.20;;;;;;;;;;4995505;28;20109;-59
2021/06/23 01:18:18;;;;;;;2.50;1.25;;;;;;;;;;4998595;28;20432;-59
2021/06/23 01:20:45;;;;;;;2.38;1.30;;;;;;;;;;4997948;28;20034;-60
2021/06/23 01:23:13;;;;;;;5.10;1.30;;;;;;;;;;4999735;28;20026;-60
2021/06/23 01:25:39;;;;;;;1.35;1.20;;;;;;;;;;5003496;28;20041;-59
2021/06/23 01:28:05;;;;;;;3.58;1.40;;;;;;;;;;4998043;28;20071;-59
2021/06/23 01:30:31;;;;;;;2.08;1.30;;;;;;;;;;5000841;28;20116;-60
2021/06/23 01:32:57;;;;;;;1.30;1.20;;;;;;;;;;5002434;28;20110;-59
2021/06/23 01:35:24;;;;;;;1.30;1.20;;;;;;;;;;5000140;28;20038;-60
2021/06/23 01:37:49;;;;;;;1.20;1.10;;;;;;;;;;5012258;28;20029;-59
2021/06/23 01:40:15;;;;;;;1.80;1.00;;;;;;;;;;4995696;28;20038;-59
2021/06/23 01:42:41;;;;;;;1.20;1.10;;;;;;;;;;5003580;28;20472;-59
2021/06/23 01:45:07;;;;;;;3.67;1.10;;;;;;;;;;5000584;28;20455;-59
2021/06/23 01:47:33;;;;;;;2.33;0.90;;;;;;;;;;5003936;28;20124;-60
2021/06/23 01:49:59;;;;;;;0.93;0.93;;;;;;;;;;4997533;28;20029;-59
2021/06/23 01:52:25;;;;;;;1.42;0.95;;;;;;;;;;5000340;28;20101;-60
2021/06/23 01:54:52;;;;;;;1.90;1.23;;;;;;;;;;5002128;28;20105;-59
2021/06/23 01:57:18;;;;;;;1.48;0.90;;;;;;;;;;5018102;28;20046;-60
2021/06/23 01:59:45;;;;;;;2.00;1.00;;;;;;;;;;5004002;28;20026;-59
2021/06/23 02:02:17;;;;;;;1.10;1.10;;;;;;;;;;5003037;28;20041;-59
2021/06/23 02:05:04;;;;;;;0.98;0.93;;;;;;;;;;5004458;28;20030;-60
2021/06/23 02:08:07;;;;;;;1.08;0.98;;;;;;;;;;5006133;28;20038;-59
2021/06/23 02:10:49;;;;;;;3.35;1.00;;;;;;;;;;5001868;28;20033;-59
2021/06/23 02:13:29;;;;;;;2.45;1.00;;;;;;;;;;5009394;28;20415;-60
2021/06/23 02:16:05;;;;;;;1.25;1.10;;;;;;;;;;5007927;28;20041;-59
2021/06/23 02:18:31;;;;;;;1.08;0.82;;;;;;;;;;5006444;28;20022;-59
2021/06/23 02:21:00;;;;;;;1.48;0.85;;;;;;;;;;4995785;28;20031;-59
2021/06/23 02:23:26;;;;;;;2.67;0.85;;;;;;;;;;4996098;28;20026;-59
2021/06/23 02:25:51;;;;;;;1.77;0.90;;;;;;;;;;5005781;28;20036;-59
2021/06/23 02:28:18;;;;;;;1.30;1.05;;;;;;;;;;5001426;28;20046;-59
2021/06/23 02:30:44;;;;;;;1.33;0.90;;;;;;;;;;5004126;28;20170;-59
2021/06/23 02:33:10;;;;;;;2.20;0.88;;;;;;;;;;5005740;28;20488;-60
2021/06/23 02:35:37;;;;;;;1.20;1.00;;;;;;;;;;5000469;28;20021;-59
2021/06/23 02:38:05;;;;;;;3.53;0.90;;;;;;;;;;4996362;28;20087;-60
2021/06/23 02:40:31;;;;;;;1.13;0.90;;;;;;;;;;5019996;28;20030;-59
2021/06/23 02:42:56;;;;;;;1.27;1.17;;;;;;;;;;5003023;28;20034;-60
2021/06/23 02:45:23;;;;;;;1.40;1.30;;;;;;;;;;5008145;28;20025;-59
2021/06/23 02:47:48;;;;;;;1.60;1.50;;;;;;;;;;5004812;28;20372;-59
2021/06/23 02:50:14;;;;;;;1.48;1.20;;;;;;;;;;5009024;28;20026;-60
2021/06/23 02:52:40;;;;;;;4.60;1.30;;;;;;;;;;5002872;28;20033;-59
2021/06/23 02:55:06;;;;;;;1.88;1.20;;;;;;;;;;4998411;28;20104;-59
2021/06/23 02:57:36;;;;;;;1.27;1.10;;;;;;;;;;5000838;28;20449;-60
2021/06/23 03:00:05;;;;;;;1.50;1.40;;;;;;;;;;5000023;28;20027;-60
2021/06/23 03:02:30;;;;;;;2.03;1.20;;;;;;;;;;4999288;28;20476;-59
2021/06/23 03:04:56;;;;;;;2.85;1.60;;;;;;;;;;5005230;28;20121;-59
2021/06/23 03:07:22;;;;;;;3.03;1.35;;;;;;;;;;5006468;28;20037;-59
2021/06/23 03:09:47;;;;;;;1.88;1.40;;;;;;;;;;5005418;28;20629;-59
2021/06/23 03:12:14;;;;;;;1.40;1.30;;;;;;;;;;5004587;28;20061;-60
2021/06/23 03:14:40;;;;;;;2.55;1.70;;;;;;;;;;4999621;28;20037;-59
2021/06/23 03:17:05;;;;;;;1.38;1.27;;;;;;;;;;5005880;28;20050;-60
2021/06/23 03:19:32;;;;;;;2.15;1.48;;;;;;;;;;5005288;28;20031;-59
2021/06/23 03:22:03;;;;;;;1.60;1.35;;;;;;;;;;4997922;28;20084;-60
2021/06/23 03:24:28;;;;;;;1.75;1.58;;;;;;;;;;5003289;28;20468;-58
2021/06/23 03:26:54;;;;;;;1.45;1.35;;;;;;;;;;5005240;28;20087;-59
2021/06/23 03:29:22;;;;;;;4.95;1.48;;;;;;;;;;5002490;28;20049;-60
2021/06/23 03:31:48;;;;;;;1.65;1.40;;;;;;;;;;5001773;28;20034;-60
2021/06/23 03:34:13;;;;;;;1.75;1.38;;;;;;;;;;5001112;28;20041;-59
2021/06/23 03:36:39;;;;;;;2.38;1.30;;;;;;;;;;5000407;28;20040;-60
2021/06/23 03:39:04;;;;;;;1.77;1.40;;;;;;;;;;5005437;28;20057;-59
2021/06/23 03:41:29;;;;;;;1.63;1.52;;;;;;;;;;5000761;28;20080;-59
2021/06/23 03:43:55;;;;;;;2.47;1.83;;;;;;;;;;5006736;28;20049;-60
2021/06/23 03:46:20;;;;;;;3.25;1.50;;;;;;;;;;5008521;28;20179;-59
2021/06/23 03:48:45;;;;;;;2.67;1.85;;;;;;;;;;4999350;28;20033;-59
2021/06/23 03:51:11;;;;;;;2.08;1.77;;;;;;;;;;5003793;28;20485;-60
2021/06/23 03:53:36;;;;;;;1.63;1.52;;;;;;;;;;4999412;28;20026;-59
2021/06/23 03:56:02;;;;;;;1.40;1.30;;;;;;;;;;5005835;28;20506;-59
2021/06/23 03:58:27;;;;;;;1.70;1.35;;;;;;;;;;5003530;28;20034;-59
2021/06/23 04:00:53;;;;;;;1.45;1.35;;;;;;;;;;5000357;28;20037;-59
2021/06/23 04:03:18;;;;;;;3.25;1.50;;;;;;;;;;5004752;28;20044;-59
2021/06/23 04:05:44;;;;;;;2.10;1.90;;;;;;;;;;4997731;28;20387;-60
2021/06/23 04:08:11;;;;;;;3.33;2.00;;;;;;;;;;4995607;28;20108;-60
2021/06/23 04:10:37;;;;;;;1.70;1.60;;;;;;;;;;4997451;28;20405;-59
2021/06/23 04:13:03;;;;;;;2.53;1.65;;;;;;;;;;5006147;28;20112;-60
2021/06/23 04:15:28;;;;;;;1.67;1.58;;;;;;;;;;5002186;28;20036;-59
2021/06/23 04:17:54;;;;;;;1.67;1.58;;;;;;;;;;4993336;28;20058;-59
2021/06/23 04:20:19;;;;;;;2.42;2.22;;;;;;;;;;5001723;28;20026;-59
2021/06/23 04:22:45;;;;;;;1.98;1.60;;;;;;;;;;4999035;28;20030;-58
2021/06/23 04:25:12;;;;;;;2.03;1.63;;;;;;;;;;4998008;28;20026;-59
2021/06/23 04:27:38;;;;;;;2.15;2.00;;;;;;;;;;5005744;28;20054;-60
2021/06/23 04:30:07;;;;;;;2.50;1.35;;;;;;;;;;5005660;28;20133;-60
2021/06/23 04:32:33;;;;;;;1.80;1.70;;;;;;;;;;5000165;28;20504;-60
2021/06/23 04:35:01;;;;;;;1.70;1.60;;;;;;;;;;5005789;28;20030;-59
2021/06/23 04:37:26;;;;;;;1.60;1.50;;;;;;;;;;4997924;28;20026;-59
2021/06/23 04:39:52;;;;;;;2.30;1.40;;;;;;;;;;5004271;28;20512;-60
2021/06/23 04:42:17;;;;;;;2.72;1.50;;;;;;;;;;4999584;28;20451;-60
2021/06/23 04:44:43;;;;;;;1.55;1.42;;;;;;;;;;4999097;28;20041;-59
2021/06/23 04:47:08;;;;;;;1.95;1.67;;;;;;;;;;5002994;28;20484;-60
2021/06/23 04:49:34;;;;;;;3.45;1.80;;;;;;;;;;4999200;28;20117;-60
2021/06/23 04:51:59;;;;;;;3.95;2.15;;;;;;;;;;5002895;28;20025;-60
2021/06/23 04:54:25;;;;;;;3.97;1.90;;;;;;;;;;5012986;28;20030;-60
2021/06/23 04:56:50;;;;;;;2.67;1.65;;;;;;;;;;5004739;28;20032;-60
2021/06/23 04:59:16;;;;;;;1.63;1.52;;;;;;;;;;5000225;28;20488;-59
2021/06/23 05:01:41;;;;;;;1.83;1.73;;;;;;;;;;5003818;28;20032;-59
2021/06/23 05:04:06;;;;;;;2.10;1.90;;;;;;;;;;5003376;28;20050;-60
2021/06/23 05:06:32;;;;;;;4.00;1.77;;;;;;;;;;4998354;28;20039;-60
2021/06/23 05:08:57;;;;;;;1.55;1.45;;;;;;;;;;4998024;28;20031;-60
2021/06/23 05:11:26;;;;;;;2.33;1.80;;;;;;;;;;5002908;28;20022;-60
2021/06/23 05:13:51;;;;;;;3.20;1.63;;;;;;;;;;5005483;28;20029;-60
2021/06/23 05:16:17;;;;;;;3.33;1.95;;;;;;;;;;5001684;28;20105;-59
2021/06/23 05:18:42;;;;;;;1.92;1.83;;;;;;;;;;5003350;28;20037;-59
2021/06/23 05:21:08;;;;;;;2.13;1.73;;;;;;;;;;4999089;28;20096;-61
2021/06/23 05:23:33;;;;;;;1.70;1.60;;;;;;;;;;5000213;28;20117;-62
2021/06/23 05:25:59;;;;;;;3.63;1.60;;;;;;;;;;4999262;28;20026;-61
2021/06/23 05:28:24;;;;;;;4.35;1.70;;;;;;;;;;4999694;28;20113;-61
2021/06/23 05:30:53;;;;;;;1.70;1.60;;;;;;;;;;4999384;28;20030;-61
2021/06/23 05:33:19;;;;;;;3.38;1.83;;;;;;;;;;4996967;28;20409;-61
2021/06/23 05:35:44;;;;;;;3.22;1.50;;;;;;;;;;5000502;28;20034;-61
2021/06/23 05:38:10;;;;;;;1.50;1.40;;;;;;;;;;5002748;28;20029;-62
2021/06/23 05:40:38;;;;;;;2.15;1.85;;;;;;;;;;5000510;28;20470;-62
2021/06/23 05:43:04;;;;;;;2.37;1.70;;;;;;;;;;4999714;28;20072;-62
2021/06/23 05:45:29;;;;;;;2.00;1.90;;;;;;;;;;5000850;28;20050;-60
2021/06/23 05:47:54;;;;;;;1.92;1.67;;;;;;;;;;4999216;28;20550;-60
2021/06/23 05:50:20;;;;;;;4.53;3.08;;;;;;;;;;4993399;28;20026;-62
2021/06/23 05:52:45;;;;;;;2.00;1.80;;;;;;;;;;4994840;28;20048;-62
2021/06/23 05:55:11;;;;;;;1.58;1.48;;;;;;;;;;5004912;28;20026;-62
2021/06/23 05:57:36;;;;;;;5.18;1.75;;;;;;;;;;4995922;28;20741;-60
2021/06/23 06:00:03;;;;;;;1.70;1.60;;;;;;;;;;4996911;28;20046;-60
2021/06/23 06:02:29;;;;;;;3.17;1.60;;;;;;;;;;5018346;28;20025;-60
2021/06/23 06:04:54;;;;;;;1.65;1.55;;;;;;;;;;4996327;28;20029;-60
2021/06/23 06:07:19;;;;;;;2.10;1.60;;;;;;;;;;4996714;28;20035;-61
2021/06/23 06:09:45;;;;;;;3.92;1.65;;;;;;;;;;5005228;28;20507;-61
2021/06/23 06:12:10;;;;;;;1.95;1.60;;;;;;;;;;4999261;28;20113;-61
2021/06/23 06:14:36;;;;;;;3.40;1.85;;;;;;;;;;4999630;28;20488;-60
2021/06/23 06:17:01;;;;;;;1.88;1.73;;;;;;;;;;4995432;28;20026;-60
2021/06/23 06:19:27;;;;;;;3.20;1.80;;;;;;;;;;4994015;28;20046;-60
2021/06/23 06:21:54;;;;;;;1.48;1.20;;;;;;;;;;4998937;28;23419;-60
2021/06/23 06:24:20;;;;;;;1.50;1.25;;;;;;;;;;4998906;28;20045;-60
2021/06/23 06:26:45;;;;;;;1.65;1.55;;;;;;;;;;4999628;28;20030;-61
2021/06/23 06:29:10;;;;;;;8.52;5.88;;;;;;;;;;4998066;28;20068;-62
2021/06/23 06:31:36;;;;;;;4.90;4.40;;;;;;;;;;5001068;28;20030;-61
2021/06/23 06:34:01;;;;;;;2.85;2.60;;;;;;;;;;4999946;28;20022;-61
2021/06/23 06:36:27;;;;;;;3.13;1.70;;;;;;;;;;5002184;28;20038;-62
2021/06/23 06:38:52;;;;;;;1.80;1.45;;;;;;;;;;4998088;28;20030;-61
2021/06/23 06:41:18;;;;;;;1.40;1.30;;;;;;;;;;5004355;28;20034;-61
2021/06/23 06:43:43;;;;;;;2.35;1.60;;;;;;;;;;5002331;28;20699;-61
2021/06/23 06:46:08;;;;;;;3.15;1.88;;;;;;;;;;5000835;28;20053;-61
2021/06/23 06:48:34;;;;;;;2.83;2.58;;;;;;;;;;5001745;28;20155;-60
2021/06/23 06:50:59;;;;;;;4.20;1.83;;;;;;;;;;5002681;28;20178;-60
2021/06/23 06:53:25;;;;;;;2.38;1.50;;;;;;;;;;5000495;28;20048;-60
2021/06/23 06:55:50;;;;;;;1.60;1.50;;;;;;;;;;5003639;28;20552;-58
2021/06/23 06:58:16;;;;;;;3.15;1.70;;;;;;;;;;4998579;28;20401;-58
2021/06/23 07:00:41;;;;;;;3.40;1.83;;;;;;;;;;5005352;28;20399;-58
2021/06/23 07:03:07;;;;;;;12.80;1.80;;;;;;;;;;5006279;28;20038;-58
2021/06/23 07:05:32;;;;;;;10.68;1.92;;;;;;;;;;5001186;28;20109;-59
2021/06/23 07:07:58;;;;;;;7.35;1.30;;;;;;;;;;5003223;28;20022;-59
2021/06/23 07:10:23;;;;;;;4.13;1.27;;;;;;;;;;5006725;28;20033;-59
2021/06/23 07:12:48;;;;;;;3.83;1.60;;;;;;;;;;5001406;28;20030;-59
2021/06/23 07:15:15;;;;;;;2.30;1.30;;;;;;;;;;5003095;28;20034;-59
2021/06/23 07:17:40;;;;;;;2.55;1.35;;;;;;;;;;5003836;28;20385;-59
2021/06/23 07:20:07;;;;;;;1.80;1.67;;;;;;;;;;5006796;28;20030;-59
2021/06/23 07:22:33;;;;;;;1.50;1.40;;;;;;;;;;5003450;28;20030;-58
2021/06/23 07:24:59;;;;;;;1.65;1.10;;;;;;;;;;5009292;28;20055;-59
2021/06/23 07:27:25;;;;;;;2.00;1.20;;;;;;;;;;5000128;28;20257;-59
2021/06/23 07:29:50;;;;;;;1.40;1.30;;;;;;;;;;5001606;28;20080;-59
2021/06/23 07:32:32;;;;;;;1.70;1.33;;;;;;;;;;4996211;28;20511;-59
2021/06/23 07:37:41;;;;;;;1.50;1.40;;;;;;;;;;4997696;28;20480;-59
2021/06/23 07:40:07;;;;;;;1.42;1.20;;;;;;;;;;5000589;28;20062;-59
2021/06/23 07:42:33;;;;;;;2.17;1.10;;;;;;;;;;5000315;28;20031;-59
2021/06/23 07:45:01;;;;;;;2.08;1.23;;;;;;;;;;5005226;28;20056;-59
2021/06/23 07:47:29;;;;;;;1.50;1.40;;;;;;;;;;4999192;28;20079;-59
2021/06/23 07:49:55;;;;;;;1.27;1.20;;;;;;;;;;5003221;28;20018;-59
2021/06/23 07:52:28;;;;;;;5.38;1.40;;;;;;;;;;4995388;28;20026;-58
2021/06/23 08:11:16;;;;;;;2.22;1.20;;;;;;;;;;4999217;28;20045;-58
2021/06/23 08:13:41;;;;;;;;;;;;;;;;;;5000112;28;20232;-57
2021/06/23 08:16:07;;;;;;;1.10;1.00;;;;;;;;;;4999245;28;19918;-58
2021/06/23 08:18:32;;;;;;;1.00;1.00;;;;;;;;;;4997552;28;20488;-59
2021/06/23 08:20:58;;;;;;;1.52;1.00;;;;;;;;;;5000459;28;20084;-58
2021/06/23 08:23:23;;;;;;;0.90;0.90;;;;;;;;;;5006530;28;20100;-58
2021/06/23 08:25:49;;;;;;;1.05;1.00;;;;;;;;;;5000201;28;20496;-59
2021/06/23 08:28:14;;;;;;;0.80;0.80;;;;;;;;;;5004845;28;20049;-58
2021/06/23 08:30:40;;;;;;;0.82;0.80;;;;;;;;;;5005389;28;20037;-58
2021/06/23 08:33:05;;;;;;;1.00;0.82;;;;;;;;;;5004657;28;20531;-58
2021/06/23 08:35:31;;;;;;;2.63;0.80;;;;;;;;;;4999834;28;20026;-58
2021/06/23 08:37:56;;;;;;;0.85;0.85;;;;;;;;;;4997501;28;20065;-59
2021/06/23 08:40:22;;;;;;;0.80;0.80;;;;;;;;;;4999266;28;20117;-59
2021/06/23 08:42:47;;;;;;;2.72;1.10;;;;;;;;;;5002179;28;20080;-59
2021/06/23 08:45:13;;;;;;;1.65;1.13;;;;;;;;;;5001358;28;20040;-59
2021/06/23 08:47:47;;;;;;;0.85;0.80;;;;;;;;;;4997086;28;20118;-59
2021/06/23 08:50:18;;;;;;;3.22;0.73;;;;;;;;;;5005348;28;20108;-59
2021/06/23 08:52:43;;;;;;;4.80;1.60;;;;;;;;;;4998758;28;20033;-59
2021/06/23 08:55:09;;;;;;;7.78;1.88;;;;;;;;;;4999325;28;20377;-60
2021/06/23 08:57:35;;;;;;;4.45;1.40;;;;;;;;;;4999669;28;20030;-60
2021/06/23 09:00:03;;;;;;;5.82;1.50;;;;;;;;;;5002636;28;20507;-59
2021/06/23 09:02:30;;;;;;;16.00;3.20;;;;;;;;;;5003997;28;20342;-58
2021/06/23 09:04:56;;;;;;;7.47;1.95;;;;;;;;;;5002238;28;20027;-59
2021/06/23 09:07:43;;;;;;;8.43;1.80;;;;;;;;;;5003147;28;20021;-59
2021/06/23 09:10:20;;;;;;;2.45;1.00;;;;;;;;;;5000198;28;20084;-58
2021/06/23 09:13:09;;;;;;;0.77;0.77;;;;;;;;;;4999081;28;20073;-58
2021/06/23 09:15:47;;;;;;;0.87;0.80;;;;;;;;;;5015056;28;20037;-58
2021/06/23 09:18:14;;;;;;;0.85;0.80;;;;;;;;;;4997893;28;20500;-59
2021/06/23 09:20:40;;;;;;;0.70;0.70;;;;;;;;;;4995544;28;20034;-59
2021/06/23 09:23:06;;;;;;;1.58;1.13;;;;;;;;;;4999580;28;20058;-58
2021/06/23 09:25:34;;;;;;;0.80;0.80;;;;;;;;;;5003058;28;20052;-59
2021/06/23 09:28:02;;;;;;;0.77;0.77;;;;;;;;;;4996517;28;20100;-59
2021/06/23 09:30:38;;;;;;;0.50;0.50;;;;;;;;;;5001823;28;20300;-59
2021/06/23 09:33:14;;;;;;;1.30;0.80;;;;;;;;;;4998011;28;20037;-58
2021/06/23 09:35:42;;;;;;;1.90;0.73;;;;;;;;;;4999852;28;20061;-59
2021/06/23 09:38:29;;;;;;;0.70;0.70;;;;;;;;;;4993624;28;20030;-58
2021/06/23 09:40:54;;;;;;;1.05;0.70;;;;;;;;;;4999988;28;20042;-58
2021/06/23 09:43:19;;;;;;;2.40;0.75;;;;;;;;;;4995929;28;20060;-59
2021/06/23 09:45:52;;;;;;;1.83;0.90;;;;;;;;;;5001301;28;20046;-58
2021/06/23 09:48:18;;;;;;;1.55;0.70;;;;;;;;;;5003170;28;20119;-58
2021/06/23 09:50:43;;;;;;;0.95;0.80;;;;;;;;;;5004416;28;20129;-59
2021/06/23 09:53:13;;;;;;;1.02;0.80;;;;;;;;;;4996970;28;20030;-58
2021/06/23 09:55:41;;;;;;;0.90;0.70;;;;;;;;;;5001784;28;20030;-59
2021/06/23 09:58:09;;;;;;;1.08;0.75;;;;;;;;;;4996810;28;20399;-59
2021/06/23 10:01:01;;;;;;;0.85;0.70;;;;;;;;;;5001043;28;20128;-60
2021/06/23 10:03:30;;;;;;;1.17;0.90;;;;;;;;;;4996542;28;20034;-59
2021/06/23 10:05:56;;;;;;;0.70;0.70;;;;;;;;;;5016445;28;20034;-59
2021/06/23 10:08:27;;;;;;;1.98;1.02;;;;;;;;;;4986818;28;20473;-59
2021/06/23 10:10:54;;;;;;;1.35;1.17;;;;;;;;;;5004309;28;20044;-59
2021/06/23 10:13:20;;;;;;;0.90;0.90;;;;;;;;;;5000436;28;20125;-59
2021/06/23 10:15:49;;;;;;;2.22;0.70;;;;;;;;;;5003537;28;20045;-58
2021/06/23 10:18:17;;;;;;;1.23;0.98;;;;;;;;;;5003694;28;20068;-60
2021/06/23 10:20:43;;;;;;;2.25;1.35;;;;;;;;;;5001010;28;20080;-60
2021/06/23 10:23:08;;;;;;;2.22;0.90;;;;;;;;;;5002671;28;20042;-59
2021/06/23 10:25:35;;;;;;;1.02;1.00;;;;;;;;;;4999035;28;20080;-59
2021/06/23 10:28:03;;;;;;;1.15;0.93;;;;;;;;;;5006306;28;20120;-61
2021/06/23 10:30:30;;;;;;;1.17;0.82;;;;;;;;;;5004050;28;20022;-58
2021/06/23 10:32:58;;;;;;;1.42;1.00;;;;;;;;;;5006596;28;20145;-61
2021/06/23 10:35:24;;;;;;;1.73;0.90;;;;;;;;;;5004350;28;20085;-60
2021/06/23 10:37:51;;;;;;;1.58;1.00;;;;;;;;;;5005476;28;20029;-61
2021/06/23 10:40:18;;;;;;;3.75;2.10;;;;;;;;;;4998686;28;20427;-60
2021/06/23 10:42:44;;;;;;;2.75;1.48;;;;;;;;;;5003012;28;20602;-59
2021/06/23 10:45:11;;;;;;;2.47;0.70;;;;;;;;;;4997768;28;20061;-59
2021/06/23 10:47:43;;;;;;;1.27;0.80;;;;;;;;;;5003316;28;20252;-60
2021/06/23 10:50:28;;;;;;;3.13;1.00;;;;;;;;;;5006913;28;20033;-59
2021/06/23 10:52:53;;;;;;;1.95;0.82;;;;;;;;;;5002779;28;20537;-58
2021/06/23 10:55:21;;;;;;;2.65;0.82;;;;;;;;;;5000296;28;20130;-59
2021/06/23 10:57:50;;;;;;;1.50;1.00;;;;;;;;;;4999120;28;20026;-59
2021/06/23 11:00:18;;;;;;;3.22;0.93;;;;;;;;;;4997433;28;20053;-60
2021/06/23 11:02:49;;;;;;;0.70;0.70;;;;;;;;;;5003339;28;20112;-59
2021/06/23 11:05:19;;;;;;;2.22;0.80;;;;;;;;;;5002867;28;20037;-60
2021/06/23 11:07:55;;;;;;;1.00;0.73;;;;;;;;;;5002247;28;20109;-60
2021/06/23 11:10:30;;;;;;;2.08;1.00;;;;;;;;;;5000351;28;20097;-60
2021/06/23 11:12:57;;;;;;;1.00;0.90;;;;;;;;;;5004186;28;20029;-60
2021/06/23 11:15:31;;;;;;;1.20;0.80;;;;;;;;;;4998319;28;20042;-60
2021/06/23 11:18:20;;;;;;;1.90;0.77;;;;;;;;;;5004524;28;20057;-59
2021/06/23 11:20:50;;;;;;;1.63;0.80;;;;;;;;;;5002129;28;20033;-59
2021/06/23 11:23:41;;;;;;;1.65;0.70;;;;;;;;;;4997121;28;20046;-60
2021/06/23 11:26:29;;;;;;;1.25;0.70;;;;;;;;;;5007025;28;20029;-59
2021/06/23 11:29:10;;;;;;;2.90;0.80;;;;;;;;;;5012890;28;20442;-60
2021/06/23 11:31:51;;;;;;;6.65;1.10;;;;;;;;;;5004708;28;20025;-59
2021/06/23 11:34:35;;;;;;;1.67;0.85;;;;;;;;;;5006443;28;20088;-60
2021/06/23 11:37:00;;;;;;;1.67;0.88;;;;;;;;;;5002886;28;20026;-61
2021/06/23 11:39:26;;;;;;;1.23;1.02;;;;;;;;;;5000397;28;20546;-62
2021/06/23 11:41:51;;;;;;;1.23;0.80;;;;;;;;;;5004005;28;20407;-62
2021/06/23 11:44:16;;;;;;;0.68;0.68;;;;;;;;;;5004609;28;20424;-62
2021/06/23 11:46:44;;;;;;;0.60;0.60;;;;;;;;;;4998727;28;20373;-62
2021/06/23 11:49:10;;;;;;;2.38;0.88;;;;;;;;;;4999179;28;20481;-63
2021/06/23 11:51:35;;;;;;;1.08;0.68;;;;;;;;;;4997625;28;20049;-63
2021/06/23 11:54:03;;;;;;;1.20;0.70;;;;;;;;;;4999398;28;20101;-62
2021/06/23 11:56:28;;;;;;;1.48;0.60;;;;;;;;;;4996043;28;20519;-63
2021/06/23 11:58:54;;;;;;;0.60;0.57;;;;;;;;;;5001796;28;20034;-62
2021/06/23 12:01:19;;;;;;;0.88;0.70;;;;;;;;;;4997395;28;20104;-62
2021/06/23 12:03:45;;;;;;;1.20;1.10;;;;;;;;;;5001467;28;20170;-62
2021/06/23 12:06:10;;;;;;;1.55;0.80;;;;;;;;;;5002225;28;20037;-62
2021/06/23 12:08:35;;;;;;;0.68;0.50;;;;;;;;;;5004054;28;20041;-63
2021/06/23 12:11:01;;;;;;;0.90;0.60;;;;;;;;;;5004706;28;20113;-62
2021/06/23 12:13:26;;;;;;;0.63;0.60;;;;;;;;;;4998692;28;20052;-62
2021/06/23 12:15:52;;;;;;;0.60;0.60;;;;;;;;;;5003680;28;20099;-62
2021/06/23 12:18:18;;;;;;;1.27;0.40;;;;;;;;;;5005200;28;20495;-62
2021/06/23 12:20:43;;;;;;;0.55;0.55;;;;;;;;;;4997752;28;20033;-62
2021/06/23 12:23:10;;;;;;;0.68;0.60;;;;;;;;;;5001262;28;20078;-62
2021/06/23 12:25:41;;;;;;;0.70;0.63;;;;;;;;;;4995277;28;20222;-62
2021/06/23 12:28:10;;;;;;;0.60;0.60;;;;;;;;;;4996119;28;20400;-62
2021/06/23 12:30:38;;;;;;;0.80;0.68;;;;;;;;;;5001681;28;20037;-63
2021/06/23 12:33:04;;;;;;;0.82;0.70;;;;;;;;;;4996901;28;20049;-63
2021/06/23 12:35:30;;;;;;;0.70;0.70;;;;;;;;;;5001525;28;20037;-61
2021/06/23 12:37:56;;;;;;;0.55;0.55;;;;;;;;;;5000510;28;20025;-62
2021/06/23 12:40:22;;;;;;;0.85;0.70;;;;;;;;;;4999984;28;20030;-62
2021/06/23 12:42:47;;;;;;;1.67;0.70;;;;;;;;;;5003535;28;20026;-62
2021/06/23 12:45:13;;;;;;;1.52;0.70;;;;;;;;;;5002983;28;20478;-63
2021/06/23 12:47:39;;;;;;;0.68;0.60;;;;;;;;;;4996401;28;20501;-63
2021/06/23 12:50:07;;;;;;;0.68;0.60;;;;;;;;;;4998881;28;20534;-62
2021/06/23 12:52:32;;;;;;;3.17;0.70;;;;;;;;;;4997830;28;20089;-63
2021/06/23 12:54:57;;;;;;;0.65;0.52;;;;;;;;;;4996760;28;20444;-62
2021/06/23 12:57:23;;;;;;;1.15;0.60;;;;;;;;;;5006804;28;20064;-62
2021/06/23 12:59:48;;;;;;;2.17;0.90;;;;;;;;;;5002592;28;20504;-63
2021/06/23 13:02:14;;;;;;;0.85;0.50;;;;;;;;;;5005343;28;20033;-63
2021/06/23 13:04:41;;;;;;;0.90;0.70;;;;;;;;;;5000888;28;20038;-62
2021/06/23 13:07:06;;;;;;;2.08;1.00;;;;;;;;;;5004257;28;20030;-63
2021/06/23 13:09:32;;;;;;;0.50;0.50;;;;;;;;;;4996615;28;20022;-64
2021/06/23 13:11:58;;;;;;;0.73;0.60;;;;;;;;;;4998592;28;20049;-62
2021/06/23 13:14:23;;;;;;;0.40;0.40;;;;;;;;;;5003241;28;20033;-63
2021/06/23 13:16:49;;;;;;;1.27;0.60;;;;;;;;;;5001552;28;20034;-61
2021/06/23 13:19:14;;;;;;;1.80;0.60;;;;;;;;;;5014837;28;20034;-62
2021/06/23 13:21:40;;;;;;;0.50;0.50;;;;;;;;;;4995129;28;20030;-62
2021/06/23 13:24:06;;;;;;;0.73;0.70;;;;;;;;;;5000115;28;20030;-63
2021/06/23 13:26:31;;;;;;;1.55;0.60;;;;;;;;;;4997452;28;20044;-62
2021/06/23 13:28:57;;;;;;;1.08;0.65;;;;;;;;;;5004110;28;20057;-63
2021/06/23 13:31:23;;;;;;;0.60;0.60;;;;;;;;;;4996728;28;20026;-62
2021/06/23 13:33:48;;;;;;;0.90;0.80;;;;;;;;;;4995762;28;20034;-62
2021/06/23 13:36:14;;;;;;;1.08;0.68;;;;;;;;;;5004312;28;20034;-61
2021/06/23 13:38:39;;;;;;;0.77;0.70;;;;;;;;;;5000174;28;20583;-62
2021/06/23 13:41:05;;;;;;;0.88;0.55;;;;;;;;;;4991878;28;20034;-62
2021/06/23 13:43:31;;;;;;;1.80;0.52;;;;;;;;;;4999168;28;20037;-62
2021/06/23 13:45:57;;;;;;;0.50;0.50;;;;;;;;;;5001473;28;20099;-62
2021/06/23 13:48:22;;;;;;;1.17;0.85;;;;;;;;;;4995247;28;20393;-62
2021/06/23 13:50:49;;;;;;;0.70;0.68;;;;;;;;;;5000606;28;20062;-59
2021/06/23 13:53:14;;;;;;;0.70;0.70;;;;;;;;;;4997537;28;20580;-60
2021/06/23 13:55:41;;;;;;;0.95;0.77;;;;;;;;;;4998286;28;20367;-60
2021/06/23 13:58:08;;;;;;;1.58;0.82;;;;;;;;;;4993192;28;20113;-61
2021/06/23 14:00:42;;;;;;;1.33;0.85;;;;;;;;;;4958902;28;1128267;-61
2021/06/23 14:03:08;;;;;;;1.63;0.70;;;;;;;;;;5000589;28;20403;-60
2021/06/23 14:05:42;;;;;;;1.15;0.70;;;;;;;;;;5001737;28;20484;-61
2021/06/23 14:08:10;;;;;;;1.67;0.75;;;;;;;;;;4997951;28;20034;-61
2021/06/23 14:10:38;;;;;;;1.27;0.50;;;;;;;;;;4998053;28;20026;-60
2021/06/23 14:13:04;;;;;;;1.05;0.90;;;;;;;;;;4997890;28;20056;-60
2021/06/23 14:15:30;;;;;;;1.10;0.82;;;;;;;;;;4996952;28;20109;-60
2021/06/23 14:17:57;;;;;;;0.95;0.65;;;;;;;;;;5011715;28;20029;-60
2021/06/23 14:20:24;;;;;;;1.13;0.90;;;;;;;;;;4998922;28;20032;-62
2021/06/23 14:22:50;;;;;;;0.70;0.70;;;;;;;;;;4996219;28;20062;-59
2021/06/23 14:25:16;;;;;;;1.27;1.10;;;;;;;;;;4996635;28;20532;-60
2021/06/23 14:27:42;;;;;;;1.25;0.90;;;;;;;;;;4998180;28;20038;-59
2021/06/23 14:30:11;;;;;;;0.80;0.80;;;;;;;;;;5000059;28;20022;-60
2021/06/23 14:32:37;;;;;;;1.10;0.80;;;;;;;;;;4993353;28;20112;-60
2021/06/23 14:35:04;;;;;;;1.13;0.65;;;;;;;;;;5000178;28;20496;-60
2021/06/23 14:37:30;;;;;;;0.75;0.75;;;;;;;;;;4995585;28;20034;-62
2021/06/23 14:39:55;;;;;;;3.17;1.08;;;;;;;;;;4996614;28;20121;-60
2021/06/23 14:42:21;;;;;;;1.92;0.95;;;;;;;;;;4998344;28;20480;-61
2021/06/23 14:44:46;;;;;;;0.90;0.80;;;;;;;;;;4999005;28;20104;-61
2021/06/23 14:47:12;;;;;;;1.92;1.00;;;;;;;;;;4996991;28;20080;-62
2021/06/23 14:49:37;;;;;;;3.20;1.02;;;;;;;;;;4999963;28;20411;-62
2021/06/23 14:52:03;;;;;;;2.35;1.05;;;;;;;;;;5001322;28;20104;-61
2021/06/23 14:54:29;;;;;;;1.13;0.80;;;;;;;;;;5005144;28;20056;-62
2021/06/23 14:56:54;;;;;;;2.10;1.30;;;;;;;;;;4996677;28;20031;-60
2021/06/23 14:59:20;;;;;;;3.40;1.50;;;;;;;;;;5000032;28;20125;-60
2021/06/23 15:01:45;;;;;;;3.80;1.42;;;;;;;;;;5003182;28;20044;-60
2021/06/23 15:04:11;;;;;;;6.10;1.95;;;;;;;;;;5005813;28;20060;-60